sensor_id;sensor_type;location;lat;lon;timestamp;P1;durP1;ratioP1;P2;durP2;ratioP2
15363;SDS011;7781;49.690;6.472;2023-05-10T00:00:07;7.00;;;2.57;;
15363;SDS011;7781;49.690;6.472;2023-05-10T00:02:41;3.40;;;2.30;;
15363;SDS011;7781;49.690;6.472;2023-05-10T00:05:12;5.83;;;2.80;;
15363;SDS011;7781;49.690;6.472;2023-05-10T00:07:42;2.40;;;2.20;;
15363;SDS011;7781;49.690;6.472;2023-05-10T00:10:11;3.83;;;2.60;;
15363;SDS011;7781;49.690;6.472;2023-05-10T00:12:40;2.80;;;2.60;;
15363;SDS011;7781;49.690;6.472;2023-05-10T00:15:10;3.40;;;2.60;;
15363;SDS011;7781;49.690;6.472;2023-05-10T00:17:38;4.93;;;2.93;;
15363;SDS011;7781;49.690;6.472;2023-05-10T00:20:10;4.37;;;2.50;;
15363;SDS011;7781;49.690;6.472;2023-05-10T00:22:39;3.50;;;3.20;;
15363;SDS011;7781;49.690;6.472;2023-05-10T00:25:08;4.50;;;3.23;;
15363;SDS011;7781;49.690;6.472;2023-05-10T00:27:41;6.17;;;3.50;;
15363;SDS011;7781;49.690;6.472;2023-05-10T00:30:10;6.17;;;3.03;;
15363;SDS011;7781;49.690;6.472;2023-05-10T00:32:39;4.20;;;2.83;;
15363;SDS011;7781;49.690;6.472;2023-05-10T00:35:11;2.60;;;2.40;;
15363;SDS011;7781;49.690;6.472;2023-05-10T00:37:40;6.70;;;2.43;;
15363;SDS011;7781;49.690;6.472;2023-05-10T00:40:09;5.37;;;2.70;;
15363;SDS011;7781;49.690;6.472;2023-05-10T00:42:40;2.63;;;2.43;;
15363;SDS011;7781;49.690;6.472;2023-05-10T00:45:09;8.00;;;3.10;;
15363;SDS011;7781;49.690;6.472;2023-05-10T00:47:39;5.40;;;2.93;;
15363;SDS011;7781;49.690;6.472;2023-05-10T00:50:09;4.90;;;3.43;;
15363;SDS011;7781;49.690;6.472;2023-05-10T00:52:41;3.40;;;3.10;;
15363;SDS011;7781;49.690;6.472;2023-05-10T00:55:11;4.87;;;3.00;;
15363;SDS011;7781;49.690;6.472;2023-05-10T00:57:40;3.40;;;3.00;;
15363;SDS011;7781;49.690;6.472;2023-05-10T01:00:10;7.50;;;3.40;;
15363;SDS011;7781;49.690;6.472;2023-05-10T01:02:44;3.43;;;3.13;;
15363;SDS011;7781;49.690;6.472;2023-05-10T01:05:18;4.77;;;3.60;;
15363;SDS011;7781;49.690;6.472;2023-05-10T01:07:46;3.57;;;3.10;;
15363;SDS011;7781;49.690;6.472;2023-05-10T01:10:15;5.67;;;3.17;;
15363;SDS011;7781;49.690;6.472;2023-05-10T01:12:45;4.90;;;3.60;;
15363;SDS011;7781;49.690;6.472;2023-05-10T01:15:14;5.13;;;4.00;;
15363;SDS011;7781;49.690;6.472;2023-05-10T01:17:44;4.97;;;3.83;;
15363;SDS011;7781;49.690;6.472;2023-05-10T01:20:18;3.73;;;3.40;;
15363;SDS011;7781;49.690;6.472;2023-05-10T01:28:58;6.87;;;3.70;;
15363;SDS011;7781;49.690;6.472;2023-05-10T01:32:11;5.20;;;3.73;;
15363;SDS011;7781;49.690;6.472;2023-05-10T01:34:53;5.93;;;3.90;;
15363;SDS011;7781;49.690;6.472;2023-05-10T01:37:30;4.70;;;3.57;;
15363;SDS011;7781;49.690;6.472;2023-05-10T01:40:07;5.60;;;4.30;;
15363;SDS011;7781;49.690;6.472;2023-05-10T01:42:43;6.90;;;3.90;;
15363;SDS011;7781;49.690;6.472;2023-05-10T01:45:18;6.20;;;3.63;;
15363;SDS011;7781;49.690;6.472;2023-05-10T01:47:56;6.23;;;3.50;;
15363;SDS011;7781;49.690;6.472;2023-05-10T01:50:32;6.20;;;3.57;;
15363;SDS011;7781;49.690;6.472;2023-05-10T01:53:05;4.30;;;3.60;;
15363;SDS011;7781;49.690;6.472;2023-05-10T01:55:39;4.27;;;3.53;;
15363;SDS011;7781;49.690;6.472;2023-05-10T01:58:14;5.33;;;3.50;;
15363;SDS011;7781;49.690;6.472;2023-05-10T02:00:46;4.93;;;3.60;;
15363;SDS011;7781;49.690;6.472;2023-05-10T02:03:20;5.07;;;3.30;;
15363;SDS011;7781;49.690;6.472;2023-05-10T02:05:52;6.30;;;4.00;;
15363;SDS011;7781;49.690;6.472;2023-05-10T02:08:22;7.53;;;4.40;;
15363;SDS011;7781;49.690;6.472;2023-05-10T02:10:54;3.77;;;3.30;;
15363;SDS011;7781;49.690;6.472;2023-05-10T02:13:24;11.73;;;3.80;;
15363;SDS011;7781;49.690;6.472;2023-05-10T02:15:55;6.63;;;3.90;;
15363;SDS011;7781;49.690;6.472;2023-05-10T02:18:27;7.90;;;4.13;;
15363;SDS011;7781;49.690;6.472;2023-05-10T02:20:57;6.50;;;4.03;;
15363;SDS011;7781;49.690;6.472;2023-05-10T02:23:29;4.37;;;3.97;;
15363;SDS011;7781;49.690;6.472;2023-05-10T02:26:01;7.50;;;4.43;;
15363;SDS011;7781;49.690;6.472;2023-05-10T02:28:32;5.27;;;3.90;;
15363;SDS011;7781;49.690;6.472;2023-05-10T02:31:02;6.80;;;4.23;;
15363;SDS011;7781;49.690;6.472;2023-05-10T02:33:32;5.77;;;4.10;;
15363;SDS011;7781;49.690;6.472;2023-05-10T02:36:02;6.23;;;3.97;;
15363;SDS011;7781;49.690;6.472;2023-05-10T02:38:32;5.23;;;3.57;;
15363;SDS011;7781;49.690;6.472;2023-05-10T02:41:03;4.13;;;3.73;;
15363;SDS011;7781;49.690;6.472;2023-05-10T02:43:34;4.80;;;4.30;;
15363;SDS011;7781;49.690;6.472;2023-05-10T02:46:05;10.00;;;4.03;;
15363;SDS011;7781;49.690;6.472;2023-05-10T02:48:37;8.03;;;3.90;;
15363;SDS011;7781;49.690;6.472;2023-05-10T02:51:06;5.37;;;4.20;;
15363;SDS011;7781;49.690;6.472;2023-05-10T02:53:38;5.03;;;3.70;;
15363;SDS011;7781;49.690;6.472;2023-05-10T02:56:13;4.00;;;3.40;;
15363;SDS011;7781;49.690;6.472;2023-05-10T02:58:48;4.67;;;4.13;;
15363;SDS011;7781;49.690;6.472;2023-05-10T03:01:17;3.93;;;3.63;;
15363;SDS011;7781;49.690;6.472;2023-05-10T03:03:47;11.10;;;4.30;;
15363;SDS011;7781;49.690;6.472;2023-05-10T03:06:15;3.60;;;3.27;;
15363;SDS011;7781;49.690;6.472;2023-05-10T03:08:43;5.47;;;3.67;;
15363;SDS011;7781;49.690;6.472;2023-05-10T03:11:16;4.10;;;3.70;;
15363;SDS011;7781;49.690;6.472;2023-05-10T03:14:12;6.80;;;4.07;;
15363;SDS011;7781;49.690;6.472;2023-05-10T03:16:52;12.57;;;3.60;;
15363;SDS011;7781;49.690;6.472;2023-05-10T03:19:32;4.20;;;3.17;;
15363;SDS011;7781;49.690;6.472;2023-05-10T03:22:08;6.67;;;3.47;;
15363;SDS011;7781;49.690;6.472;2023-05-10T03:24:39;4.57;;;3.50;;
15363;SDS011;7781;49.690;6.472;2023-05-10T03:27:10;4.80;;;3.27;;
15363;SDS011;7781;49.690;6.472;2023-05-10T03:29:42;4.77;;;2.87;;
15363;SDS011;7781;49.690;6.472;2023-05-10T03:32:14;5.20;;;2.67;;
15363;SDS011;7781;49.690;6.472;2023-05-10T03:34:44;3.13;;;2.83;;
15363;SDS011;7781;49.690;6.472;2023-05-10T03:37:14;3.77;;;2.30;;
15363;SDS011;7781;49.690;6.472;2023-05-10T03:39:45;3.17;;;2.03;;
15363;SDS011;7781;49.690;6.472;2023-05-10T03:42:14;4.83;;;2.60;;
15363;SDS011;7781;49.690;6.472;2023-05-10T03:44:44;2.97;;;2.33;;
15363;SDS011;7781;49.690;6.472;2023-05-10T03:47:12;4.10;;;2.83;;
15363;SDS011;7781;49.690;6.472;2023-05-10T03:49:42;3.87;;;2.20;;
15363;SDS011;7781;49.690;6.472;2023-05-10T03:52:15;2.97;;;2.10;;
15363;SDS011;7781;49.690;6.472;2023-05-10T03:54:46;2.93;;;1.77;;
15363;SDS011;7781;49.690;6.472;2023-05-10T03:57:15;2.33;;;1.90;;
15363;SDS011;7781;49.690;6.472;2023-05-10T03:59:43;1.80;;;1.57;;
15363;SDS011;7781;49.690;6.472;2023-05-10T04:02:12;2.10;;;1.90;;
15363;SDS011;7781;49.690;6.472;2023-05-10T04:04:41;1.83;;;1.60;;
15363;SDS011;7781;49.690;6.472;2023-05-10T04:07:10;2.03;;;1.47;;
15363;SDS011;7781;49.690;6.472;2023-05-10T04:09:40;3.67;;;2.20;;
15363;SDS011;7781;49.690;6.472;2023-05-10T04:12:09;2.90;;;2.20;;
15363;SDS011;7781;49.690;6.472;2023-05-10T04:14:37;3.20;;;1.70;;
15363;SDS011;7781;49.690;6.472;2023-05-10T04:17:06;3.00;;;1.87;;
15363;SDS011;7781;49.690;6.472;2023-05-10T04:19:35;1.50;;;1.40;;
15363;SDS011;7781;49.690;6.472;2023-05-10T04:22:04;1.37;;;1.27;;
15363;SDS011;7781;49.690;6.472;2023-05-10T04:24:32;1.47;;;1.37;;
15363;SDS011;7781;49.690;6.472;2023-05-10T04:27:02;4.30;;;1.53;;
15363;SDS011;7781;49.690;6.472;2023-05-10T04:29:31;1.43;;;1.33;;
15363;SDS011;7781;49.690;6.472;2023-05-10T04:32:00;2.13;;;1.40;;
15363;SDS011;7781;49.690;6.472;2023-05-10T04:34:29;3.00;;;1.60;;
15363;SDS011;7781;49.690;6.472;2023-05-10T04:37:01;1.60;;;1.50;;
15363;SDS011;7781;49.690;6.472;2023-05-10T04:39:29;2.20;;;1.60;;
15363;SDS011;7781;49.690;6.472;2023-05-10T04:41:57;1.97;;;1.50;;
15363;SDS011;7781;49.690;6.472;2023-05-10T04:44:27;2.30;;;1.60;;
15363;SDS011;7781;49.690;6.472;2023-05-10T04:46:55;3.27;;;1.40;;
15363;SDS011;7781;49.690;6.472;2023-05-10T04:49:24;1.70;;;1.60;;
15363;SDS011;7781;49.690;6.472;2023-05-10T04:51:52;2.90;;;1.40;;
15363;SDS011;7781;49.690;6.472;2023-05-10T04:54:21;6.53;;;1.47;;
15363;SDS011;7781;49.690;6.472;2023-05-10T04:56:50;0.90;;;0.90;;
15363;SDS011;7781;49.690;6.472;2023-05-10T04:59:19;1.20;;;1.07;;
15363;SDS011;7781;49.690;6.472;2023-05-10T05:01:49;1.20;;;1.10;;
15363;SDS011;7781;49.690;6.472;2023-05-10T05:04:18;8.73;;;1.60;;
15363;SDS011;7781;49.690;6.472;2023-05-10T05:06:46;1.30;;;1.20;;
15363;SDS011;7781;49.690;6.472;2023-05-10T05:09:19;1.80;;;1.50;;
15363;SDS011;7781;49.690;6.472;2023-05-10T05:11:47;1.40;;;1.30;;
15363;SDS011;7781;49.690;6.472;2023-05-10T05:14:16;1.87;;;1.50;;
15363;SDS011;7781;49.690;6.472;2023-05-10T05:16:47;1.40;;;1.23;;
15363;SDS011;7781;49.690;6.472;2023-05-10T05:19:17;12.23;;;1.20;;
15363;SDS011;7781;49.690;6.472;2023-05-10T05:21:46;1.30;;;1.20;;
15363;SDS011;7781;49.690;6.472;2023-05-10T05:24:14;1.20;;;1.10;;
15363;SDS011;7781;49.690;6.472;2023-05-10T05:26:43;1.10;;;1.00;;
15363;SDS011;7781;49.690;6.472;2023-05-10T05:29:12;1.20;;;1.10;;
15363;SDS011;7781;49.690;6.472;2023-05-10T05:31:41;2.03;;;1.10;;
15363;SDS011;7781;49.690;6.472;2023-05-10T05:34:10;1.60;;;1.10;;
15363;SDS011;7781;49.690;6.472;2023-05-10T05:36:40;2.40;;;1.43;;
15363;SDS011;7781;49.690;6.472;2023-05-10T05:39:09;3.00;;;1.40;;
15363;SDS011;7781;49.690;6.472;2023-05-10T05:41:38;1.20;;;1.10;;
15363;SDS011;7781;49.690;6.472;2023-05-10T05:44:08;1.30;;;1.20;;
15363;SDS011;7781;49.690;6.472;2023-05-10T05:46:37;4.07;;;1.27;;
15363;SDS011;7781;49.690;6.472;2023-05-10T05:49:06;1.40;;;1.30;;
15363;SDS011;7781;49.690;6.472;2023-05-10T05:51:35;2.27;;;1.90;;
15363;SDS011;7781;49.690;6.472;2023-05-10T05:54:05;9.33;;;1.30;;
15363;SDS011;7781;49.690;6.472;2023-05-10T05:56:33;1.73;;;1.23;;
15363;SDS011;7781;49.690;6.472;2023-05-10T05:59:02;2.60;;;2.40;;
15363;SDS011;7781;49.690;6.472;2023-05-10T06:01:32;1.30;;;1.13;;
15363;SDS011;7781;49.690;6.472;2023-05-10T06:04:01;1.20;;;1.10;;
15363;SDS011;7781;49.690;6.472;2023-05-10T06:06:29;2.10;;;1.47;;
15363;SDS011;7781;49.690;6.472;2023-05-10T06:08:59;1.43;;;1.33;;
15363;SDS011;7781;49.690;6.472;2023-05-10T06:11:29;2.33;;;1.20;;
15363;SDS011;7781;49.690;6.472;2023-05-10T06:13:58;2.40;;;1.40;;
15363;SDS011;7781;49.690;6.472;2023-05-10T06:16:27;1.30;;;1.20;;
15363;SDS011;7781;49.690;6.472;2023-05-10T06:18:56;6.70;;;1.20;;
15363;SDS011;7781;49.690;6.472;2023-05-10T06:21:25;4.60;;;1.33;;
15363;SDS011;7781;49.690;6.472;2023-05-10T06:23:54;2.33;;;0.90;;
15363;SDS011;7781;49.690;6.472;2023-05-10T06:26:23;1.70;;;0.97;;
15363;SDS011;7781;49.690;6.472;2023-05-10T06:28:53;1.20;;;0.90;;
15363;SDS011;7781;49.690;6.472;2023-05-10T06:31:22;0.90;;;0.90;;
15363;SDS011;7781;49.690;6.472;2023-05-10T06:33:51;0.90;;;0.90;;
15363;SDS011;7781;49.690;6.472;2023-05-10T06:36:22;0.90;;;0.90;;
15363;SDS011;7781;49.690;6.472;2023-05-10T06:38:53;2.40;;;0.90;;
15363;SDS011;7781;49.690;6.472;2023-05-10T06:41:22;0.90;;;0.80;;
15363;SDS011;7781;49.690;6.472;2023-05-10T06:43:54;0.73;;;0.73;;
15363;SDS011;7781;49.690;6.472;2023-05-10T06:46:22;2.27;;;0.90;;
15363;SDS011;7781;49.690;6.472;2023-05-10T06:48:51;2.60;;;0.90;;
15363;SDS011;7781;49.690;6.472;2023-05-10T06:51:21;3.73;;;0.90;;
15363;SDS011;7781;49.690;6.472;2023-05-10T06:53:50;1.30;;;0.97;;
15363;SDS011;7781;49.690;6.472;2023-05-10T06:56:20;0.97;;;0.70;;
15363;SDS011;7781;49.690;6.472;2023-05-10T06:58:49;2.40;;;1.10;;
15363;SDS011;7781;49.690;6.472;2023-05-10T07:01:19;3.90;;;1.00;;
15363;SDS011;7781;49.690;6.472;2023-05-10T07:03:47;0.97;;;0.87;;
15363;SDS011;7781;49.690;6.472;2023-05-10T07:06:16;4.00;;;1.00;;
15363;SDS011;7781;49.690;6.472;2023-05-10T07:09:00;2.47;;;1.00;;
15363;SDS011;7781;49.690;6.472;2023-05-10T07:11:29;1.97;;;1.40;;
15363;SDS011;7781;49.690;6.472;2023-05-10T07:13:57;2.27;;;0.90;;
15363;SDS011;7781;49.690;6.472;2023-05-10T07:16:28;2.83;;;0.80;;
15363;SDS011;7781;49.690;6.472;2023-05-10T07:18:56;1.93;;;0.90;;
15363;SDS011;7781;49.690;6.472;2023-05-10T07:21:25;3.10;;;0.93;;
15363;SDS011;7781;49.690;6.472;2023-05-10T07:23:55;1.03;;;0.73;;
15363;SDS011;7781;49.690;6.472;2023-05-10T07:26:24;0.80;;;0.80;;
15363;SDS011;7781;49.690;6.472;2023-05-10T07:28:52;2.20;;;1.00;;
15363;SDS011;7781;49.690;6.472;2023-05-10T07:31:22;1.23;;;1.13;;
15363;SDS011;7781;49.690;6.472;2023-05-10T07:33:54;1.10;;;1.00;;
15363;SDS011;7781;49.690;6.472;2023-05-10T07:36:23;1.23;;;0.80;;
15363;SDS011;7781;49.690;6.472;2023-05-10T07:38:52;1.23;;;1.00;;
15363;SDS011;7781;49.690;6.472;2023-05-10T07:41:23;1.23;;;0.80;;
15363;SDS011;7781;49.690;6.472;2023-05-10T07:43:52;1.00;;;0.90;;
15363;SDS011;7781;49.690;6.472;2023-05-10T07:46:21;1.23;;;0.70;;
15363;SDS011;7781;49.690;6.472;2023-05-10T07:48:50;2.50;;;0.90;;
15363;SDS011;7781;49.690;6.472;2023-05-10T07:51:20;5.20;;;1.20;;
15363;SDS011;7781;49.690;6.472;2023-05-10T07:53:49;1.13;;;1.03;;
15363;SDS011;7781;49.690;6.472;2023-05-10T07:56:22;0.90;;;0.70;;
15363;SDS011;7781;49.690;6.472;2023-05-10T07:58:53;1.17;;;0.90;;
15363;SDS011;7781;49.690;6.472;2023-05-10T08:01:22;0.93;;;0.90;;
15363;SDS011;7781;49.690;6.472;2023-05-10T08:03:52;2.20;;;1.10;;
15363;SDS011;7781;49.690;6.472;2023-05-10T08:06:23;1.67;;;1.30;;
15363;SDS011;7781;49.690;6.472;2023-05-10T08:08:57;1.27;;;1.17;;
15363;SDS011;7781;49.690;6.472;2023-05-10T08:11:26;5.37;;;1.10;;
15363;SDS011;7781;49.690;6.472;2023-05-10T08:13:55;1.97;;;1.07;;
15363;SDS011;7781;49.690;6.472;2023-05-10T08:16:24;1.00;;;0.90;;
15363;SDS011;7781;49.690;6.472;2023-05-10T08:18:55;1.80;;;0.97;;
15363;SDS011;7781;49.690;6.472;2023-05-10T08:21:25;4.30;;;1.47;;
15363;SDS011;7781;49.690;6.472;2023-05-10T08:23:54;4.20;;;1.50;;
15363;SDS011;7781;49.690;6.472;2023-05-10T08:26:23;2.50;;;1.43;;
15363;SDS011;7781;49.690;6.472;2023-05-10T08:28:52;4.33;;;1.50;;
15363;SDS011;7781;49.690;6.472;2023-05-10T08:31:21;3.60;;;1.50;;
15363;SDS011;7781;49.690;6.472;2023-05-10T08:33:50;5.40;;;1.40;;
15363;SDS011;7781;49.690;6.472;2023-05-10T08:36:19;1.73;;;1.30;;
15363;SDS011;7781;49.690;6.472;2023-05-10T08:38:52;2.47;;;1.50;;
15363;SDS011;7781;49.690;6.472;2023-05-10T08:41:22;6.00;;;2.63;;
15363;SDS011;7781;49.690;6.472;2023-05-10T08:43:52;3.93;;;1.20;;
15363;SDS011;7781;49.690;6.472;2023-05-10T08:46:22;4.40;;;1.27;;
15363;SDS011;7781;49.690;6.472;2023-05-10T08:48:51;1.37;;;1.27;;
15363;SDS011;7781;49.690;6.472;2023-05-10T08:51:24;1.70;;;1.00;;
15363;SDS011;7781;49.690;6.472;2023-05-10T08:53:56;1.53;;;1.00;;
15363;SDS011;7781;49.690;6.472;2023-05-10T08:56:25;2.30;;;1.33;;
15363;SDS011;7781;49.690;6.472;2023-05-10T08:58:54;1.20;;;1.10;;
15363;SDS011;7781;49.690;6.472;2023-05-10T09:01:23;1.93;;;1.53;;
15363;SDS011;7781;49.690;6.472;2023-05-10T09:03:53;1.13;;;1.03;;
15363;SDS011;7781;49.690;6.472;2023-05-10T09:06:25;1.93;;;1.07;;
15363;SDS011;7781;49.690;6.472;2023-05-10T09:08:56;2.47;;;1.10;;
15363;SDS011;7781;49.690;6.472;2023-05-10T09:11:25;3.33;;;1.20;;
15363;SDS011;7781;49.690;6.472;2023-05-10T09:13:56;2.50;;;1.20;;
15363;SDS011;7781;49.690;6.472;2023-05-10T09:16:26;2.47;;;1.37;;
15363;SDS011;7781;49.690;6.472;2023-05-10T09:18:54;2.80;;;1.57;;
15363;SDS011;7781;49.690;6.472;2023-05-10T09:21:25;3.27;;;1.50;;
15363;SDS011;7781;49.690;6.472;2023-05-10T09:23:54;3.43;;;1.53;;
15363;SDS011;7781;49.690;6.472;2023-05-10T09:26:24;4.87;;;1.60;;
15363;SDS011;7781;49.690;6.472;2023-05-10T09:28:53;11.33;;;2.50;;
15363;SDS011;7781;49.690;6.472;2023-05-10T09:31:23;3.93;;;1.70;;
15363;SDS011;7781;49.690;6.472;2023-05-10T09:33:53;4.77;;;1.70;;
15363;SDS011;7781;49.690;6.472;2023-05-10T09:36:22;2.47;;;1.60;;
15363;SDS011;7781;49.690;6.472;2023-05-10T09:38:52;5.13;;;2.07;;
15363;SDS011;7781;49.690;6.472;2023-05-10T09:41:22;4.40;;;2.07;;
15363;SDS011;7781;49.690;6.472;2023-05-10T09:43:55;4.13;;;1.53;;
15363;SDS011;7781;49.690;6.472;2023-05-10T09:46:25;5.70;;;1.50;;
15363;SDS011;7781;49.690;6.472;2023-05-10T09:48:54;4.20;;;2.00;;
15363;SDS011;7781;49.690;6.472;2023-05-10T09:51:23;6.77;;;2.00;;
15363;SDS011;7781;49.690;6.472;2023-05-10T09:54:08;8.33;;;1.97;;
15363;SDS011;7781;49.690;6.472;2023-05-10T09:56:40;5.00;;;1.73;;
15363;SDS011;7781;49.690;6.472;2023-05-10T09:59:10;2.17;;;1.60;;
15363;SDS011;7781;49.690;6.472;2023-05-10T10:01:40;2.80;;;1.70;;
15363;SDS011;7781;49.690;6.472;2023-05-10T10:04:09;7.37;;;1.97;;
15363;SDS011;7781;49.690;6.472;2023-05-10T10:06:39;2.93;;;1.73;;
15363;SDS011;7781;49.690;6.472;2023-05-10T10:09:09;3.90;;;1.63;;
15363;SDS011;7781;49.690;6.472;2023-05-10T10:11:38;5.10;;;1.90;;
15363;SDS011;7781;49.690;6.472;2023-05-10T10:14:09;6.97;;;2.00;;
15363;SDS011;7781;49.690;6.472;2023-05-10T10:16:40;4.87;;;1.70;;
15363;SDS011;7781;49.690;6.472;2023-05-10T10:19:28;5.17;;;1.50;;
15363;SDS011;7781;49.690;6.472;2023-05-10T10:21:58;8.07;;;1.90;;
15363;SDS011;7781;49.690;6.472;2023-05-10T10:24:28;4.67;;;2.27;;
15363;SDS011;7781;49.690;6.472;2023-05-10T10:27:01;9.30;;;1.80;;
15363;SDS011;7781;49.690;6.472;2023-05-10T10:29:39;5.50;;;1.60;;
15363;SDS011;7781;49.690;6.472;2023-05-10T10:32:19;10.30;;;1.80;;
15363;SDS011;7781;49.690;6.472;2023-05-10T10:34:53;3.80;;;1.90;;
15363;SDS011;7781;49.690;6.472;2023-05-10T10:40:24;4.00;;;1.60;;
15363;SDS011;7781;49.690;6.472;2023-05-10T10:42:56;5.63;;;1.90;;
15363;SDS011;7781;49.690;6.472;2023-05-10T10:45:25;4.53;;;1.67;;
15363;SDS011;7781;49.690;6.472;2023-05-10T10:50:55;7.90;;;2.10;;
15363;SDS011;7781;49.690;6.472;2023-05-10T10:53:25;8.30;;;1.90;;
15363;SDS011;7781;49.690;6.472;2023-05-10T10:56:02;6.30;;;1.80;;
15363;SDS011;7781;49.690;6.472;2023-05-10T10:58:37;6.03;;;1.97;;
15363;SDS011;7781;49.690;6.472;2023-05-10T11:01:11;5.17;;;1.30;;
15363;SDS011;7781;49.690;6.472;2023-05-10T11:03:54;3.40;;;1.60;;
15363;SDS011;7781;49.690;6.472;2023-05-10T11:06:38;4.10;;;1.70;;
15363;SDS011;7781;49.690;6.472;2023-05-10T11:09:09;3.73;;;1.60;;
15363;SDS011;7781;49.690;6.472;2023-05-10T11:11:48;3.63;;;1.70;;
15363;SDS011;7781;49.690;6.472;2023-05-10T11:14:21;5.27;;;2.07;;
15363;SDS011;7781;49.690;6.472;2023-05-10T11:16:50;4.83;;;2.20;;
15363;SDS011;7781;49.690;6.472;2023-05-10T11:19:19;7.53;;;1.63;;
15363;SDS011;7781;49.690;6.472;2023-05-10T11:21:48;8.03;;;1.60;;
15363;SDS011;7781;49.690;6.472;2023-05-10T11:24:19;4.03;;;1.30;;
15363;SDS011;7781;49.690;6.472;2023-05-10T11:26:49;2.23;;;1.40;;
15363;SDS011;7781;49.690;6.472;2023-05-10T11:29:20;5.53;;;1.70;;
15363;SDS011;7781;49.690;6.472;2023-05-10T11:31:52;2.00;;;1.40;;
15363;SDS011;7781;49.690;6.472;2023-05-10T11:34:25;7.60;;;1.83;;
15363;SDS011;7781;49.690;6.472;2023-05-10T11:36:56;3.57;;;1.50;;
15363;SDS011;7781;49.690;6.472;2023-05-10T11:39:28;4.30;;;1.20;;
15363;SDS011;7781;49.690;6.472;2023-05-10T11:41:57;6.87;;;1.50;;
15363;SDS011;7781;49.690;6.472;2023-05-10T11:44:30;2.70;;;1.40;;
15363;SDS011;7781;49.690;6.472;2023-05-10T11:46:59;6.37;;;1.43;;
15363;SDS011;7781;49.690;6.472;2023-05-10T11:49:31;3.77;;;1.30;;
15363;SDS011;7781;49.690;6.472;2023-05-10T11:52:05;1.83;;;1.00;;
15363;SDS011;7781;49.690;6.472;2023-05-10T11:54:35;7.13;;;1.30;;
15363;SDS011;7781;49.690;6.472;2023-05-10T11:57:03;4.53;;;1.33;;
15363;SDS011;7781;49.690;6.472;2023-05-10T11:59:34;2.87;;;1.20;;
15363;SDS011;7781;49.690;6.472;2023-05-10T12:02:06;2.20;;;1.10;;
15363;SDS011;7781;49.690;6.472;2023-05-10T12:04:35;3.50;;;1.20;;
15363;SDS011;7781;49.690;6.472;2023-05-10T12:07:03;2.87;;;1.03;;
15363;SDS011;7781;49.690;6.472;2023-05-10T12:09:34;3.50;;;1.20;;
15363;SDS011;7781;49.690;6.472;2023-05-10T12:12:09;2.53;;;1.10;;
15363;SDS011;7781;49.690;6.472;2023-05-10T12:14:39;2.10;;;1.00;;
15363;SDS011;7781;49.690;6.472;2023-05-10T12:17:11;3.73;;;1.33;;
15363;SDS011;7781;49.690;6.472;2023-05-10T12:19:40;2.30;;;1.30;;
15363;SDS011;7781;49.690;6.472;2023-05-10T12:22:10;4.33;;;1.10;;
15363;SDS011;7781;49.690;6.472;2023-05-10T12:24:39;4.10;;;1.00;;
15363;SDS011;7781;49.690;6.472;2023-05-10T12:27:07;2.63;;;1.20;;
15363;SDS011;7781;49.690;6.472;2023-05-10T12:29:36;3.53;;;1.10;;
15363;SDS011;7781;49.690;6.472;2023-05-10T12:32:11;2.70;;;1.30;;
15363;SDS011;7781;49.690;6.472;2023-05-10T12:34:40;2.17;;;1.07;;
15363;SDS011;7781;49.690;6.472;2023-05-10T12:37:09;2.30;;;1.13;;
15363;SDS011;7781;49.690;6.472;2023-05-10T12:39:39;3.73;;;1.00;;
15363;SDS011;7781;49.690;6.472;2023-05-10T12:42:08;1.43;;;0.90;;
15363;SDS011;7781;49.690;6.472;2023-05-10T12:44:38;2.50;;;1.20;;
15363;SDS011;7781;49.690;6.472;2023-05-10T12:47:11;3.50;;;1.03;;
15363;SDS011;7781;49.690;6.472;2023-05-10T12:49:40;2.80;;;0.97;;
15363;SDS011;7781;49.690;6.472;2023-05-10T12:52:09;3.77;;;1.20;;
15363;SDS011;7781;49.690;6.472;2023-05-10T12:54:37;5.47;;;1.13;;
15363;SDS011;7781;49.690;6.472;2023-05-10T12:57:08;1.10;;;0.97;;
15363;SDS011;7781;49.690;6.472;2023-05-10T12:59:37;3.60;;;1.10;;
15363;SDS011;7781;49.690;6.472;2023-05-10T13:02:08;2.70;;;1.20;;
15363;SDS011;7781;49.690;6.472;2023-05-10T13:04:38;2.83;;;1.17;;
15363;SDS011;7781;49.690;6.472;2023-05-10T13:07:09;2.00;;;1.13;;
15363;SDS011;7781;49.690;6.472;2023-05-10T13:09:38;3.03;;;1.57;;
15363;SDS011;7781;49.690;6.472;2023-05-10T13:12:07;2.70;;;1.40;;
15363;SDS011;7781;49.690;6.472;2023-05-10T13:14:35;2.70;;;1.10;;
15363;SDS011;7781;49.690;6.472;2023-05-10T13:17:06;1.17;;;0.80;;
15363;SDS011;7781;49.690;6.472;2023-05-10T13:19:35;4.77;;;0.90;;
15363;SDS011;7781;49.690;6.472;2023-05-10T13:22:05;4.30;;;1.17;;
15363;SDS011;7781;49.690;6.472;2023-05-10T13:24:33;1.33;;;0.90;;
15363;SDS011;7781;49.690;6.472;2023-05-10T13:27:02;4.40;;;1.20;;
15363;SDS011;7781;49.690;6.472;2023-05-10T13:29:30;2.93;;;1.00;;
15363;SDS011;7781;49.690;6.472;2023-05-10T13:31:58;3.83;;;2.03;;
15363;SDS011;7781;49.690;6.472;2023-05-10T13:34:27;4.07;;;0.93;;
15363;SDS011;7781;49.690;6.472;2023-05-10T13:36:56;1.80;;;1.03;;
15363;SDS011;7781;49.690;6.472;2023-05-10T13:39:29;2.60;;;1.00;;
15363;SDS011;7781;49.690;6.472;2023-05-10T13:41:59;1.00;;;0.90;;
15363;SDS011;7781;49.690;6.472;2023-05-10T13:44:30;1.20;;;0.90;;
15363;SDS011;7781;49.690;6.472;2023-05-10T13:47:00;2.40;;;0.90;;
15363;SDS011;7781;49.690;6.472;2023-05-10T13:49:29;1.83;;;1.00;;
15363;SDS011;7781;49.690;6.472;2023-05-10T13:51:57;1.60;;;0.87;;
15363;SDS011;7781;49.690;6.472;2023-05-10T13:54:31;2.97;;;0.73;;
15363;SDS011;7781;49.690;6.472;2023-05-10T13:57:00;2.10;;;0.87;;
15363;SDS011;7781;49.690;6.472;2023-05-10T13:59:29;1.60;;;0.80;;
15363;SDS011;7781;49.690;6.472;2023-05-10T14:01:58;1.10;;;0.70;;
15363;SDS011;7781;49.690;6.472;2023-05-10T14:04:29;3.67;;;0.90;;
15363;SDS011;7781;49.690;6.472;2023-05-10T14:06:58;1.13;;;0.80;;
15363;SDS011;7781;49.690;6.472;2023-05-10T14:09:27;1.70;;;0.70;;
15363;SDS011;7781;49.690;6.472;2023-05-10T14:11:59;1.33;;;0.90;;
15363;SDS011;7781;49.690;6.472;2023-05-10T14:14:28;8.00;;;0.90;;
15363;SDS011;7781;49.690;6.472;2023-05-10T14:16:58;1.63;;;0.90;;
15363;SDS011;7781;49.690;6.472;2023-05-10T14:19:27;1.20;;;0.77;;
15363;SDS011;7781;49.690;6.472;2023-05-10T14:22:02;1.87;;;0.97;;
15363;SDS011;7781;49.690;6.472;2023-05-10T14:24:31;5.13;;;0.80;;
15363;SDS011;7781;49.690;6.472;2023-05-10T14:27:04;3.37;;;0.90;;
15363;SDS011;7781;49.690;6.472;2023-05-10T14:29:37;1.30;;;0.90;;
15363;SDS011;7781;49.690;6.472;2023-05-10T14:32:06;1.43;;;0.80;;
15363;SDS011;7781;49.690;6.472;2023-05-10T14:34:36;2.10;;;0.80;;
15363;SDS011;7781;49.690;6.472;2023-05-10T14:37:05;3.93;;;1.00;;
15363;SDS011;7781;49.690;6.472;2023-05-10T14:39:34;1.63;;;0.70;;
15363;SDS011;7781;49.690;6.472;2023-05-10T14:42:06;1.03;;;0.93;;
15363;SDS011;7781;49.690;6.472;2023-05-10T14:44:35;6.83;;;1.27;;
15363;SDS011;7781;49.690;6.472;2023-05-10T14:47:06;3.80;;;1.60;;
15363;SDS011;7781;49.690;6.472;2023-05-10T14:49:38;1.13;;;0.70;;
15363;SDS011;7781;49.690;6.472;2023-05-10T14:52:09;1.20;;;0.80;;
15363;SDS011;7781;49.690;6.472;2023-05-10T14:54:39;1.63;;;0.70;;
15363;SDS011;7781;49.690;6.472;2023-05-10T14:57:09;4.97;;;0.90;;
15363;SDS011;7781;49.690;6.472;2023-05-10T14:59:38;2.50;;;1.13;;
15363;SDS011;7781;49.690;6.472;2023-05-10T15:02:07;2.00;;;0.97;;
15363;SDS011;7781;49.690;6.472;2023-05-10T15:04:37;1.00;;;0.90;;
15363;SDS011;7781;49.690;6.472;2023-05-10T15:07:07;0.70;;;0.70;;
15363;SDS011;7781;49.690;6.472;2023-05-10T15:09:35;2.93;;;0.90;;
15363;SDS011;7781;49.690;6.472;2023-05-10T15:12:04;2.40;;;0.90;;
15363;SDS011;7781;49.690;6.472;2023-05-10T15:14:34;1.57;;;0.90;;
15363;SDS011;7781;49.690;6.472;2023-05-10T15:17:05;1.00;;;0.80;;
15363;SDS011;7781;49.690;6.472;2023-05-10T15:19:34;1.00;;;0.90;;
15363;SDS011;7781;49.690;6.472;2023-05-10T15:22:05;3.57;;;1.00;;
15363;SDS011;7781;49.690;6.472;2023-05-10T15:24:35;2.67;;;1.00;;
15363;SDS011;7781;49.690;6.472;2023-05-10T15:27:04;1.37;;;0.87;;
15363;SDS011;7781;49.690;6.472;2023-05-10T15:29:34;1.50;;;0.90;;
15363;SDS011;7781;49.690;6.472;2023-05-10T15:32:04;2.30;;;0.80;;